PRIVATE WETTERSTATION BILLIGHEIM-ALLFELD                       ZURCK
Wetterdaten: Mittwoch, 10.12.2014
Datum Zeit Temp. A. Temp. A. min Temp. A. max Feuchte A. Luftdruck Regen Wind Richtung Richtung Sonnenschein ET Solar Taupunkt Windchill Windben Empfang
10.12.2014 00:00 0,4 C 0,4 C 0,4 C 92 % 1029,9 hPa 0,0 l/m 0,2 km/h (0 Bft) SO 134 0 min 0,000 mm 0 W/m -0,7 C 0,4 C 3,2 km/h (1 Bft) 100 %
10.12.2014 00:10 0,3 C 0,3 C 0,4 C 92 % 1029,7 hPa 0,0 l/m 0,0 km/h (0 Bft) SO 134 0 min 0,000 mm 0 W/m -0,8 C 0,3 C 0,0 km/h (0 Bft) 99 %
10.12.2014 00:20 0,2 C 0,2 C 0,3 C 92 % 1029,8 hPa 0,0 l/m 0,0 km/h (0 Bft) SO 134 0 min 0,000 mm 0 W/m -0,9 C 0,2 C 0,0 km/h (0 Bft) 100 %
10.12.2014 00:30 0,0 C 0,0 C 0,2 C 92 % 1029,7 hPa 0,0 l/m 0,0 km/h (0 Bft) SO 134 0 min 0,000 mm 0 W/m -1,1 C 0,0 C 0,0 km/h (0 Bft) 100 %
10.12.2014 00:40 -0,3 C -0,3 C 0,0 C 92 % 1029,5 hPa 0,0 l/m 0,3 km/h (0 Bft) SO 134 0 min 0,000 mm 0 W/m -1,4 C -0,3 C 3,2 km/h (1 Bft) 100 %
10.12.2014 00:50 -0,4 C -0,5 C -0,3 C 92 % 1029,4 hPa 0,0 l/m 0,4 km/h (0 Bft) SO 134 0 min 0,000 mm 0 W/m -1,5 C -0,4 C 3,2 km/h (1 Bft) 100 %
10.12.2014 01:00 -0,6 C -0,6 C -0,4 C 92 % 1029,4 hPa 0,0 l/m 0,4 km/h (0 Bft) SO 136 0 min 0,000 mm 0 W/m -1,7 C -0,6 C 3,2 km/h (1 Bft) 90 %
10.12.2014 01:10 -0,7 C -0,7 C -0,6 C 92 % 1029,6 hPa 0,0 l/m 0,2 km/h (0 Bft) SO 139 0 min 0,000 mm 0 W/m -1,8 C -0,7 C 1,6 km/h (1 Bft) 100 %
10.12.2014 01:20 -0,6 C -0,7 C -0,6 C 92 % 1029,5 hPa 0,0 l/m 0,8 km/h (0 Bft) SO 140 0 min 0,000 mm 0 W/m -1,7 C -0,6 C 4,8 km/h (1 Bft) 100 %
10.12.2014 01:30 -0,2 C -0,6 C -0,2 C 92 % 1029,2 hPa 0,0 l/m 1,4 km/h (1 Bft) SO 145 0 min 0,000 mm 0 W/m -1,3 C -0,2 C 6,4 km/h (2 Bft) 100 %
10.12.2014 01:40 0,0 C -0,2 C 0,0 C 92 % 1028,8 hPa 0,0 l/m 2,7 km/h (1 Bft) SO 134 0 min 0,000 mm 0 W/m -1,1 C 0,0 C 8,0 km/h (2 Bft) 100 %
10.12.2014 01:50 -0,1 C -0,1 C 0,0 C 91 % 1028,8 hPa 0,0 l/m 1,5 km/h (1 Bft) S 171 0 min 0,000 mm 0 W/m -1,4 C -0,1 C 6,4 km/h (2 Bft) 100 %
10.12.2014 02:00 -0,3 C -0,3 C -0,1 C 92 % 1028,8 hPa 0,0 l/m 0,3 km/h (0 Bft) S-SO 147 0 min 0,000 mm 0 W/m -1,4 C -0,3 C 4,8 km/h (1 Bft) 100 %
10.12.2014 02:10 -0,6 C -0,6 C -0,3 C 92 % 1028,6 hPa 0,0 l/m 0,1 km/h (0 Bft) S-SO 150 0 min 0,000 mm 0 W/m -1,7 C -0,6 C 1,6 km/h (1 Bft) 100 %
10.12.2014 02:20 -0,9 C -0,9 C -0,6 C 92 % 1028,5 hPa 0,0 l/m 0,1 km/h (0 Bft) S-SO 150 0 min 0,000 mm 0 W/m -2,0 C -0,9 C 3,2 km/h (1 Bft) 90 %
10.12.2014 02:30 -1,1 C -1,1 C -0,9 C 92 % 1028,5 hPa 0,0 l/m 0,3 km/h (0 Bft) S-SO 155 0 min 0,000 mm 0 W/m -2,2 C -1,1 C 3,2 km/h (1 Bft) 100 %
10.12.2014 02:40 -1,2 C -1,2 C -1,1 C 92 % 1028,4 hPa 0,0 l/m 0,2 km/h (0 Bft) S-SO 155 0 min 0,000 mm 0 W/m -2,3 C -1,2 C 3,2 km/h (1 Bft) 100 %
10.12.2014 02:50 -1,2 C -1,2 C -1,2 C 92 % 1028,3 hPa 0,0 l/m 0,8 km/h (0 Bft) S-SO 155 0 min 0,000 mm 0 W/m -2,3 C -1,2 C 3,2 km/h (1 Bft) 100 %
10.12.2014 03:00 -1,2 C -1,3 C -1,2 C 92 % 1028,5 hPa 0,0 l/m 1,1 km/h (1 Bft) S-SW 200 0 min 0,000 mm 0 W/m -2,3 C -1,2 C 4,8 km/h (1 Bft) 100 %
10.12.2014 03:10 -1,1 C -1,2 C -1,1 C 92 % 1028,4 hPa 0,0 l/m 0,4 km/h (0 Bft) S 190 0 min 0,000 mm 0 W/m -2,2 C -1,1 C 4,8 km/h (1 Bft) 99 %
10.12.2014 03:20 -0,9 C -1,1 C -0,9 C 91 % 1028,3 hPa 0,0 l/m 0,9 km/h (0 Bft) S 170 0 min 0,000 mm 0 W/m -2,2 C -0,9 C 4,8 km/h (1 Bft) 100 %
10.12.2014 03:30 -0,7 C -0,9 C -0,7 C 92 % 1028,3 hPa 0,0 l/m 2,0 km/h (1 Bft) S 190 0 min 0,000 mm 0 W/m -1,8 C -0,7 C 6,4 km/h (2 Bft) 99 %
10.12.2014 03:40 -0,5 C -0,7 C -0,5 C 91 % 1027,8 hPa 0,0 l/m 4,1 km/h (1 Bft) S-SO 166 0 min 0,000 mm 0 W/m -1,8 C -0,5 C 8,0 km/h (2 Bft) 90 %
10.12.2014 03:50 -0,3 C -0,5 C -0,3 C 92 % 1027,9 hPa 0,0 l/m 5,3 km/h (1 Bft) S 175 0 min 0,000 mm 0 W/m -1,4 C -0,3 C 14,5 km/h (3 Bft) 100 %
10.12.2014 04:00 -0,3 C -0,3 C -0,3 C 92 % 1028,0 hPa 0,0 l/m 7,3 km/h (2 Bft) S-SW 202 0 min 0,000 mm 0 W/m -1,4 C -1,2 C 16,1 km/h (3 Bft) 100 %
10.12.2014 04:10 -0,4 C -0,4 C -0,3 C 91 % 1027,9 hPa 0,0 l/m 9,3 km/h (2 Bft) S 180 0 min 0,000 mm 0 W/m -1,7 C -3,3 C 22,5 km/h (4 Bft) 100 %
10.12.2014 04:20 -0,4 C -0,4 C -0,4 C 91 % 1027,5 hPa 0,0 l/m 10,0 km/h (2 Bft) S-SW 196 0 min 0,000 mm 0 W/m -1,7 C -3,9 C 19,3 km/h (3 Bft) 100 %
10.12.2014 04:30 -0,6 C -0,6 C -0,4 C 92 % 1027,3 hPa 0,0 l/m 8,9 km/h (2 Bft) S-SW 210 0 min 0,000 mm 0 W/m -1,7 C -3,1 C 19,3 km/h (3 Bft) 100 %
10.12.2014 04:40 -0,7 C -0,7 C -0,6 C 92 % 1027,2 hPa 0,0 l/m 5,5 km/h (1 Bft) S-SW 199 0 min 0,000 mm 0 W/m -1,8 C -0,7 C 17,7 km/h (3 Bft) 99 %
10.12.2014 04:50 -0,7 C -0,7 C -0,7 C 92 % 1027,3 hPa 0,0 l/m 4,9 km/h (1 Bft) S-SW 196 0 min 0,000 mm 0 W/m -1,8 C -0,7 C 16,1 km/h (3 Bft) 99 %
10.12.2014 05:00 -0,7 C -0,7 C -0,7 C 92 % 1027,2 hPa 0,0 l/m 3,6 km/h (1 Bft) S 190 0 min 0,000 mm 0 W/m -1,8 C -0,7 C 9,7 km/h (2 Bft) 99 %
10.12.2014 05:10 -0,7 C -0,7 C -0,7 C 92 % 1026,9 hPa 0,0 l/m 6,0 km/h (2 Bft) S-SO 163 0 min 0,000 mm 0 W/m -1,8 C -0,7 C 14,5 km/h (3 Bft) 99 %
10.12.2014 05:20 -0,7 C -0,7 C -0,7 C 92 % 1026,9 hPa 0,0 l/m 3,7 km/h (1 Bft) S 186 0 min 0,000 mm 0 W/m -1,8 C -0,7 C 9,7 km/h (2 Bft) 99 %
10.12.2014 05:30 -0,7 C -0,7 C -0,7 C 92 % 1027,0 hPa 0,0 l/m 6,9 km/h (2 Bft) S 191 0 min 0,000 mm 0 W/m -1,8 C -1,2 C 14,5 km/h (3 Bft) 99 %
10.12.2014 05:40 -0,8 C -0,8 C -0,7 C 91 % 1026,8 hPa 0,0 l/m 5,7 km/h (1 Bft) S 186 0 min 0,000 mm 0 W/m -2,1 C -0,8 C 12,9 km/h (3 Bft) 99 %
10.12.2014 05:50 -0,8 C -0,8 C -0,7 C 91 % 1026,6 hPa 0,0 l/m 5,5 km/h (1 Bft) S-SW 192 0 min 0,000 mm 0 W/m -2,1 C -0,8 C 14,5 km/h (3 Bft) 99 %
10.12.2014 06:00 -0,8 C -0,8 C -0,8 C 91 % 1026,7 hPa 0,0 l/m 4,5 km/h (1 Bft) S 175 0 min 0,000 mm 0 W/m -2,1 C -0,8 C 12,9 km/h (3 Bft) 99 %
10.12.2014 06:10 -0,9 C -0,9 C -0,8 C 92 % 1026,8 hPa 0,0 l/m 3,5 km/h (1 Bft) S 188 0 min 0,000 mm 0 W/m -2,0 C -0,9 C 9,7 km/h (2 Bft) 100 %
10.12.2014 06:20 -0,9 C -0,9 C -0,8 C 92 % 1026,5 hPa 0,0 l/m 3,5 km/h (1 Bft) S-SO 147 0 min 0,000 mm 0 W/m -2,0 C -0,9 C 9,7 km/h (2 Bft) 99 %
10.12.2014 06:30 -0,9 C -0,9 C -0,9 C 92 % 1026,3 hPa 0,0 l/m 4,8 km/h (1 Bft) SO 143 0 min 0,000 mm 0 W/m -2,0 C -0,9 C 11,3 km/h (2 Bft) 99 %
10.12.2014 06:40 -0,9 C -0,9 C -0,9 C 92 % 1026,2 hPa 0,0 l/m 5,3 km/h (1 Bft) S 178 0 min 0,000 mm 0 W/m -2,0 C -0,9 C 11,3 km/h (2 Bft) 99 %
10.12.2014 06:50 -0,9 C -0,9 C -0,9 C 92 % 1026,3 hPa 0,0 l/m 3,2 km/h (1 Bft) S 186 0 min 0,000 mm 0 W/m -2,0 C -0,9 C 8,0 km/h (2 Bft) 98 %
10.12.2014 07:00 -0,9 C -0,9 C -0,9 C 92 % 1026,0 hPa 0,0 l/m 3,5 km/h (1 Bft) S 180 0 min 0,000 mm 0 W/m -2,0 C -0,9 C 8,0 km/h (2 Bft) 99 %
10.12.2014 07:10 -0,9 C -0,9 C -0,9 C 92 % 1026,1 hPa 0,0 l/m 3,2 km/h (1 Bft) S 187 0 min 0,000 mm 0 W/m -2,0 C -0,9 C 8,0 km/h (2 Bft) 100 %
10.12.2014 07:20 -0,9 C -0,9 C -0,9 C 92 % 1025,7 hPa 0,0 l/m 2,6 km/h (1 Bft) SO 142 0 min 0,000 mm 0 W/m -2,0 C -0,9 C 6,4 km/h (2 Bft) 99 %
10.12.2014 07:30 -0,9 C -0,9 C -0,9 C 92 % 1025,7 hPa 0,0 l/m 4,8 km/h (1 Bft) S-SO 167 0 min 0,000 mm 0 W/m -2,0 C -0,9 C 9,7 km/h (2 Bft) 100 %
10.12.2014 07:40 -0,9 C -0,9 C -0,8 C 92 % 1025,5 hPa 0,0 l/m 4,6 km/h (1 Bft) S-SW 196 0 min 0,000 mm 0 W/m -2,0 C -0,9 C 11,3 km/h (2 Bft) 90 %
10.12.2014 07:50 -0,9 C -0,9 C -0,8 C 92 % 1025,5 hPa 0,0 l/m 5,0 km/h (1 Bft) S 186 0 min 0,000 mm 0 W/m -2,0 C -0,9 C 14,5 km/h (3 Bft) 100 %
10.12.2014 08:00 -0,8 C -0,9 C -0,8 C 92 % 1025,4 hPa 0,0 l/m 4,7 km/h (1 Bft) S 180 0 min 0,000 mm 0 W/m -1,9 C -0,8 C 9,7 km/h (2 Bft) 100 %
10.12.2014 08:10 -0,8 C -0,8 C -0,8 C 92 % 1025,3 hPa 0,0 l/m 3,4 km/h (1 Bft) S 176 0 min 0,000 mm 0 W/m -1,9 C -0,8 C 9,7 km/h (2 Bft) 100 %
10.12.2014 08:20 -0,7 C -0,8 C -0,7 C 92 % 1025,0 hPa 0,0 l/m 4,9 km/h (1 Bft) S-SW 207 0 min 0,000 mm 5 W/m -1,8 C -0,7 C 16,1 km/h (3 Bft) 99 %
10.12.2014 08:30 -0,7 C -0,7 C -0,7 C 92 % 1024,9 hPa 0,0 l/m 5,4 km/h (1 Bft) S 176 0 min 0,000 mm 12 W/m -1,8 C -0,7 C 14,5 km/h (3 Bft) 100 %
10.12.2014 08:40 -0,7 C -0,7 C -0,7 C 92 % 1024,5 hPa 0,0 l/m 5,6 km/h (1 Bft) S-SO 162 0 min 0,000 mm 21 W/m -1,8 C -0,7 C 16,1 km/h (3 Bft) 99 %
10.12.2014 08:50 -0,6 C -0,7 C -0,6 C 92 % 1024,3 hPa 0,0 l/m 6,7 km/h (2 Bft) S-SW 199 0 min 0,000 mm 28 W/m -1,7 C -0,9 C 19,3 km/h (3 Bft) 100 %
10.12.2014 09:00 -0,5 C -0,6 C -0,5 C 91 % 1024,5 hPa 0,0 l/m 8,1 km/h (2 Bft) S 188 0 min 0,000 mm 35 W/m -1,8 C -2,3 C 17,7 km/h (3 Bft) 100 %
10.12.2014 09:10 -0,4 C -0,5 C -0,4 C 92 % 1024,4 hPa 0,0 l/m 5,1 km/h (1 Bft) S-SW 192 0 min 0,000 mm 37 W/m -1,5 C -0,4 C 9,7 km/h (2 Bft) 100 %
10.12.2014 09:20 -0,4 C -0,4 C -0,4 C 92 % 1024,2 hPa 0,0 l/m 3,6 km/h (1 Bft) S 180 0 min 0,000 mm 33 W/m -1,5 C -0,4 C 14,5 km/h (3 Bft) 100 %
10.12.2014 09:30 -0,3 C -0,4 C -0,3 C 92 % 1024,1 hPa 0,0 l/m 5,1 km/h (1 Bft) S-SO 165 0 min 0,000 mm 42 W/m -1,4 C -0,3 C 9,7 km/h (2 Bft) 100 %
10.12.2014 09:40 -0,2 C -0,3 C -0,2 C 92 % 1024,0 hPa 0,0 l/m 6,0 km/h (2 Bft) S 184 0 min 0,000 mm 49 W/m -1,3 C -0,2 C 11,3 km/h (2 Bft) 99 %
10.12.2014 09:50 -0,1 C -0,2 C -0,1 C 92 % 1024,0 hPa 0,0 l/m 4,8 km/h (1 Bft) S-SO 163 0 min 0,000 mm 62 W/m -1,2 C -0,1 C 12,9 km/h (3 Bft) 100 %
10.12.2014 10:00 0,1 C -0,1 C 0,1 C 92 % 1023,9 hPa 0,0 l/m 5,4 km/h (1 Bft) S 191 0 min 0,025 mm 62 W/m -1,0 C 0,1 C 11,3 km/h (2 Bft) 99 %
10.12.2014 10:10 0,2 C 0,1 C 0,2 C 92 % 1023,9 hPa 0,0 l/m 4,7 km/h (1 Bft) S 180 0 min 0,000 mm 63 W/m -0,9 C 0,2 C 11,3 km/h (2 Bft) 100 %
10.12.2014 10:20 0,4 C 0,2 C 0,4 C 92 % 1023,8 hPa 0,0 l/m 4,7 km/h (1 Bft) S 178 0 min 0,000 mm 76 W/m -0,7 C 0,4 C 11,3 km/h (2 Bft) 99 %
10.12.2014 10:30 0,6 C 0,4 C 0,6 C 92 % 1023,6 hPa 0,1 l/m 6,6 km/h (2 Bft) S-SW 198 0 min 0,000 mm 56 W/m -0,5 C 0,4 C 14,5 km/h (3 Bft) 100 %
10.12.2014 10:40 0,7 C 0,6 C 0,7 C 92 % 1023,5 hPa 0,0 l/m 5,9 km/h (2 Bft) S-SW 193 0 min 0,000 mm 26 W/m -0,4 C 0,7 C 14,5 km/h (3 Bft) 100 %
10.12.2014 10:50 0,7 C 0,6 C 0,7 C 91 % 1023,4 hPa 0,0 l/m 7,5 km/h (2 Bft) S 180 0 min 0,000 mm 26 W/m -0,6 C -0,4 C 16,1 km/h (3 Bft) 100 %
10.12.2014 11:00 0,7 C 0,7 C 0,7 C 91 % 1023,1 hPa 0,1 l/m 5,7 km/h (1 Bft) S 182 0 min 0,026 mm 40 W/m -0,6 C 0,7 C 12,9 km/h (3 Bft) 100 %
10.12.2014 11:10 0,8 C 0,7 C 0,8 C 91 % 1022,8 hPa 0,0 l/m 6,0 km/h (2 Bft) S-SW 196 0 min 0,000 mm 54 W/m -0,5 C 0,8 C 19,3 km/h (3 Bft) 99 %
10.12.2014 11:20 0,9 C 0,8 C 0,9 C 91 % 1022,8 hPa 0,0 l/m 5,5 km/h (1 Bft) S 176 0 min 0,000 mm 62 W/m -0,4 C 0,9 C 11,3 km/h (2 Bft) 100 %
10.12.2014 11:30 1,1 C 0,9 C 1,1 C 91 % 1022,7 hPa 0,0 l/m 6,3 km/h (2 Bft) SW 223 0 min 0,000 mm 58 W/m -0,2 C 1,1 C 14,5 km/h (3 Bft) 99 %
10.12.2014 11:40 1,2 C 1,1 C 1,2 C 91 % 1022,6 hPa 0,0 l/m 7,3 km/h (2 Bft) S-SW 195 0 min 0,000 mm 58 W/m -0,1 C 0,3 C 17,7 km/h (3 Bft) 100 %
10.12.2014 11:50 1,3 C 1,2 C 1,3 C 91 % 1022,4 hPa 0,2 l/m 6,9 km/h (2 Bft) S 186 0 min 0,000 mm 54 W/m -0,0 C 0,8 C 16,1 km/h (3 Bft) 91 %
10.12.2014 12:00 1,3 C 1,3 C 1,3 C 91 % 1022,2 hPa 0,0 l/m 7,5 km/h (2 Bft) S 182 0 min 0,025 mm 84 W/m -0,0 C 0,2 C 16,1 km/h (3 Bft) 100 %
10.12.2014 12:10 1,2 C 1,2 C 1,3 C 91 % 1021,8 hPa 0,0 l/m 8,8 km/h (2 Bft) S-SO 155 0 min 0,000 mm 74 W/m -0,1 C -1,1 C 19,3 km/h (3 Bft) 100 %
10.12.2014 12:20 1,2 C 1,2 C 1,3 C 92 % 1021,5 hPa 0,2 l/m 9,9 km/h (2 Bft) SO 145 0 min 0,000 mm 76 W/m 0,0 C -2,0 C 20,9 km/h (4 Bft) 100 %
10.12.2014 12:30 1,3 C 1,2 C 1,3 C 92 % 1021,5 hPa 0,0 l/m 8,0 km/h (2 Bft) S 188 0 min 0,000 mm 76 W/m 0,1 C -0,3 C 17,7 km/h (3 Bft) 91 %
10.12.2014 12:40 1,3 C 1,3 C 1,3 C 93 % 1021,4 hPa 0,0 l/m 9,4 km/h (2 Bft) S-SO 166 0 min 0,000 mm 72 W/m 0,3 C -1,5 C 19,3 km/h (3 Bft) 100 %
10.12.2014 12:50 1,4 C 1,3 C 1,4 C 93 % 1021,3 hPa 0,0 l/m 9,3 km/h (2 Bft) S 171 0 min 0,000 mm 70 W/m 0,4 C -1,3 C 20,9 km/h (4 Bft) 100 %
10.12.2014 13:00 1,5 C 1,4 C 1,5 C 92 % 1021,3 hPa 0,0 l/m 7,3 km/h (2 Bft) SW 216 0 min 0,026 mm 53 W/m 0,3 C 0,6 C 16,1 km/h (3 Bft) 100 %
10.12.2014 13:10 1,6 C 1,5 C 1,6 C 92 % 1021,4 hPa 0,0 l/m 9,4 km/h (2 Bft) S-SW 213 0 min 0,000 mm 40 W/m 0,4 C -1,2 C 20,9 km/h (4 Bft) 99 %
10.12.2014 13:20 1,6 C 1,6 C 1,6 C 92 % 1021,4 hPa 0,0 l/m 10,2 km/h (2 Bft) S-SW 207 0 min 0,000 mm 28 W/m 0,4 C -1,8 C 19,3 km/h (3 Bft) 100 %
10.12.2014 13:30 1,6 C 1,6 C 1,6 C 92 % 1021,1 hPa 0,0 l/m 7,5 km/h (2 Bft) SW 220 0 min 0,000 mm 35 W/m 0,4 C 0,5 C 16,1 km/h (3 Bft) 100 %
10.12.2014 13:40 1,6 C 1,6 C 1,6 C 92 % 1021,1 hPa 0,0 l/m 7,0 km/h (2 Bft) S-SW 196 0 min 0,000 mm 21 W/m 0,4 C 1,0 C 16,1 km/h (3 Bft) 100 %
10.12.2014 13:50 1,5 C 1,4 C 1,6 C 92 % 1021,0 hPa 0,0 l/m 7,2 km/h (2 Bft) S-SW 207 0 min 0,000 mm 23 W/m 0,3 C 0,7 C 14,5 km/h (3 Bft) 99 %
10.12.2014 14:00 1,4 C 1,4 C 1,5 C 92 % 1020,9 hPa 0,0 l/m 6,5 km/h (2 Bft) S-SW 213 0 min 0,025 mm 19 W/m 0,2 C 1,3 C 16,1 km/h (3 Bft) 100 %
10.12.2014 14:10 1,4 C 1,4 C 1,4 C 92 % 1020,8 hPa 0,0 l/m 6,9 km/h (2 Bft) S-SW 198 0 min 0,000 mm 19 W/m 0,2 C 0,9 C 16,1 km/h (3 Bft) 99 %
10.12.2014 14:20 1,4 C 1,4 C 1,4 C 92 % 1020,7 hPa 0,0 l/m 5,6 km/h (1 Bft) S-SW 200 0 min 0,000 mm 14 W/m 0,2 C 1,4 C 14,5 km/h (3 Bft) 100 %
10.12.2014 14:30 1,4 C 1,4 C 1,4 C 92 % 1020,7 hPa 0,0 l/m 4,6 km/h (1 Bft) S-SW 194 0 min 0,000 mm 12 W/m 0,2 C 1,4 C 11,3 km/h (2 Bft) 100 %
10.12.2014 14:40 1,4 C 1,4 C 1,4 C 92 % 1020,6 hPa 0,0 l/m 5,0 km/h (1 Bft) S 189 0 min 0,000 mm 11 W/m 0,2 C 1,4 C 11,3 km/h (2 Bft) 99 %
10.12.2014 14:50 1,4 C 1,4 C 1,4 C 92 % 1020,7 hPa 0,0 l/m 5,0 km/h (1 Bft) S-SO 167 0 min 0,000 mm 7 W/m 0,2 C 1,4 C 11,3 km/h (2 Bft) 100 %
10.12.2014 15:00 1,4 C 1,3 C 1,4 C 92 % 1020,7 hPa 0,0 l/m 5,9 km/h (2 Bft) S-SO 154 0 min 0,000 mm 5 W/m 0,2 C 1,4 C 14,5 km/h (3 Bft) 100 %
10.12.2014 15:10 1,3 C 1,3 C 1,4 C 92 % 1020,7 hPa 0,0 l/m 4,9 km/h (1 Bft) S 181 0 min 0,000 mm 9 W/m 0,1 C 1,3 C 16,1 km/h (3 Bft) 99 %
10.12.2014 15:20 1,3 C 1,3 C 1,4 C 92 % 1020,8 hPa 0,0 l/m 2,9 km/h (1 Bft) S-SO 167 0 min 0,000 mm 7 W/m 0,1 C 1,3 C 8,0 km/h (2 Bft) 99 %
10.12.2014 15:30 1,4 C 1,3 C 1,4 C 92 % 1020,8 hPa 0,0 l/m 3,5 km/h (1 Bft) S-SW 197 0 min 0,000 mm 5 W/m 0,2 C 1,4 C 9,7 km/h (2 Bft) 99 %
10.12.2014 15:40 1,4 C 1,4 C 1,4 C 92 % 1020,9 hPa 0,0 l/m 4,1 km/h (1 Bft) S-SO 159 0 min 0,000 mm 0 W/m 0,2 C 1,4 C 8,0 km/h (2 Bft) 99 %
10.12.2014 15:50 1,4 C 1,4 C 1,4 C 92 % 1020,9 hPa 0,0 l/m 2,5 km/h (1 Bft) S 182 0 min 0,000 mm 0 W/m 0,2 C 1,4 C 6,4 km/h (2 Bft) 99 %
10.12.2014 16:00 1,4 C 1,4 C 1,4 C 92 % 1020,9 hPa 0,0 l/m 1,5 km/h (1 Bft) S 175 0 min 0,000 mm 0 W/m 0,2 C 1,4 C 6,4 km/h (2 Bft) 99 %
10.12.2014 16:10 1,4 C 1,4 C 1,4 C 92 % 1020,9 hPa 0,0 l/m 2,1 km/h (1 Bft) S-SO 157 0 min 0,000 mm 0 W/m 0,2 C 1,4 C 6,4 km/h (2 Bft) 99 %
10.12.2014 16:20 1,4 C 1,4 C 1,4 C 91 % 1020,8 hPa 0,0 l/m 1,3 km/h (1 Bft) S-SO 158 0 min 0,000 mm 0 W/m 0,1 C 1,4 C 6,4 km/h (2 Bft) 99 %
10.12.2014 16:30 1,4 C 1,4 C 1,4 C 91 % 1020,6 hPa 0,2 l/m 1,9 km/h (1 Bft) SO 134 0 min 0,000 mm 0 W/m 0,1 C 1,4 C 4,8 km/h (1 Bft) 100 %
10.12.2014 16:40 1,4 C 1,4 C 1,4 C 92 % 1020,6 hPa 0,0 l/m 1,5 km/h (1 Bft) S-SO 160 0 min 0,000 mm 0 W/m 0,2 C 1,4 C 4,8 km/h (1 Bft) 98 %
10.12.2014 16:50 1,4 C 1,4 C 1,4 C 92 % 1020,6 hPa 0,0 l/m 0,8 km/h (0 Bft) S-SO 155 0 min 0,000 mm 0 W/m 0,2 C 1,4 C 4,8 km/h (1 Bft) 98 %
10.12.2014 17:00 1,4 C 1,4 C 1,4 C 92 % 1020,5 hPa 0,0 l/m 2,5 km/h (1 Bft) SO 135 0 min 0,000 mm 0 W/m 0,2 C 1,4 C 8,0 km/h (2 Bft) 98 %
10.12.2014 17:10 1,5 C 1,4 C 1,5 C 92 % 1020,5 hPa 0,0 l/m 3,4 km/h (1 Bft) SO 132 0 min 0,000 mm 0 W/m 0,3 C 1,5 C 9,7 km/h (2 Bft) 97 %
10.12.2014 17:20 1,6 C 1,5 C 1,6 C 92 % 1020,6 hPa 0,0 l/m 1,9 km/h (1 Bft) S-SO 150 0 min 0,000 mm 0 W/m 0,4 C 1,6 C 6,4 km/h (2 Bft) 97 %
10.12.2014 17:30 1,6 C 1,5 C 1,6 C 92 % 1020,6 hPa 0,2 l/m 0,8 km/h (0 Bft) S-SO 163 0 min 0,000 mm 0 W/m 0,4 C 1,6 C 6,4 km/h (2 Bft) 98 %
10.12.2014 17:40 1,6 C 1,6 C 1,6 C 92 % 1020,6 hPa 0,0 l/m 0,9 km/h (0 Bft) S-SO 151 0 min 0,000 mm 0 W/m 0,4 C 1,6 C 6,4 km/h (2 Bft) 97 %
10.12.2014 17:50 1,7 C 1,6 C 1,7 C 92 % 1020,5 hPa 0,0 l/m 1,4 km/h (1 Bft) SO 140 0 min 0,000 mm 0 W/m 0,5 C 1,7 C 6,4 km/h (2 Bft) 97 %
10.12.2014 18:00 1,7 C 1,7 C 1,7 C 92 % 1020,5 hPa 0,0 l/m 2,1 km/h (1 Bft) SO 144 0 min 0,000 mm 0 W/m 0,5 C 1,7 C 8,0 km/h (2 Bft) 98 %
10.12.2014 18:10 1,8 C 1,7 C 1,8 C 92 % 1020,6 hPa 0,0 l/m 2,6 km/h (1 Bft) S-SO 156 0 min 0,000 mm 0 W/m 0,6 C 1,8 C 8,0 km/h (2 Bft) 97 %
10.12.2014 18:20 1,8 C 1,8 C 1,8 C 92 % 1020,6 hPa 0,0 l/m 4,1 km/h (1 Bft) SO 146 0 min 0,000 mm 0 W/m 0,6 C 1,8 C 9,7 km/h (2 Bft) 97 %
10.12.2014 18:30 1,9 C 1,8 C 1,9 C 92 % 1020,4 hPa 0,0 l/m 4,9 km/h (1 Bft) S-SO 162 0 min 0,000 mm 0 W/m 0,7 C 1,9 C 11,3 km/h (2 Bft) 97 %
10.12.2014 18:40 2,1 C 1,9 C 2,1 C 92 % 1020,5 hPa 0,0 l/m 5,9 km/h (2 Bft) S-SO 167 0 min 0,000 mm 0 W/m 0,9 C 2,1 C 11,3 km/h (2 Bft) 89 %
10.12.2014 18:50 2,2 C 2,1 C 2,2 C 92 % 1020,6 hPa 0,0 l/m 5,1 km/h (1 Bft) SO 138 0 min 0,000 mm 0 W/m 1,0 C 2,2 C 9,7 km/h (2 Bft) 97 %
10.12.2014 19:00 2,2 C 2,2 C 2,2 C 92 % 1020,5 hPa 0,0 l/m 3,0 km/h (1 Bft) SO 126 0 min 0,000 mm 0 W/m 1,0 C 2,2 C 8,0 km/h (2 Bft) 97 %
10.12.2014 19:10 2,2 C 2,2 C 2,2 C 92 % 1020,4 hPa 0,0 l/m 1,2 km/h (1 Bft) SO 146 0 min 0,000 mm 0 W/m 1,0 C 2,2 C 6,4 km/h (2 Bft) 98 %
10.12.2014 19:20 2,2 C 2,2 C 2,3 C 92 % 1020,5 hPa 0,0 l/m 2,1 km/h (1 Bft) SO 144 0 min 0,000 mm 0 W/m 1,0 C 2,2 C 6,4 km/h (2 Bft) 97 %
10.12.2014 19:30 2,2 C 2,2 C 2,2 C 92 % 1020,5 hPa 0,0 l/m 1,0 km/h (0 Bft) SO 146 0 min 0,000 mm 0 W/m 1,0 C 2,2 C 4,8 km/h (1 Bft) 97 %
10.12.2014 19:40 2,3 C 2,2 C 2,3 C 92 % 1020,5 hPa 0,0 l/m 1,6 km/h (1 Bft) SO 144 0 min 0,000 mm 0 W/m 1,1 C 2,3 C 4,8 km/h (1 Bft) 98 %
10.12.2014 19:50 2,3 C 2,3 C 2,3 C 92 % 1020,5 hPa 0,0 l/m 2,2 km/h (1 Bft) S-SO 155 0 min 0,000 mm 0 W/m 1,1 C 2,3 C 6,4 km/h (2 Bft) 97 %
10.12.2014 20:00 2,3 C 2,3 C 2,3 C 92 % 1020,5 hPa 0,0 l/m 0,9 km/h (0 Bft) S-SO 150 0 min 0,000 mm 0 W/m 1,1 C 2,3 C 4,8 km/h (1 Bft) 98 %
10.12.2014 20:10 2,3 C 2,3 C 2,3 C 92 % 1020,4 hPa 0,0 l/m 1,2 km/h (1 Bft) S 169 0 min 0,000 mm 0 W/m 1,1 C 2,3 C 4,8 km/h (1 Bft) 98 %
10.12.2014 20:20 2,3 C 2,3 C 2,3 C 92 % 1020,4 hPa 0,0 l/m 1,7 km/h (1 Bft) S 169 0 min 0,000 mm 0 W/m 1,1 C 2,3 C 6,4 km/h (2 Bft) 97 %
10.12.2014 20:30 2,3 C 2,3 C 2,3 C 92 % 1020,4 hPa 0,0 l/m 1,6 km/h (1 Bft) S 190 0 min 0,000 mm 0 W/m 1,1 C 2,3 C 6,4 km/h (2 Bft) 98 %
10.12.2014 20:40 2,4 C 2,3 C 2,4 C 92 % 1020,2 hPa 0,0 l/m 0,3 km/h (0 Bft) S 178 0 min 0,000 mm 0 W/m 1,2 C 2,4 C 4,8 km/h (1 Bft) 97 %
10.12.2014 20:50 2,4 C 2,4 C 2,4 C 92 % 1020,2 hPa 0,0 l/m 0,4 km/h (0 Bft) S 177 0 min 0,000 mm 0 W/m 1,2 C 2,4 C 4,8 km/h (1 Bft) 98 %
10.12.2014 21:00 2,4 C 2,4 C 2,5 C 92 % 1020,1 hPa 0,0 l/m 0,0 km/h (0 Bft) S-SW 201 0 min 0,000 mm 0 W/m 1,2 C 2,4 C 3,2 km/h (1 Bft) 97 %
10.12.2014 21:10 2,6 C 2,4 C 2,6 C 92 % 1020,0 hPa 0,0 l/m 1,6 km/h (1 Bft) S-SW 209 0 min 0,000 mm 0 W/m 1,4 C 2,6 C 6,4 km/h (2 Bft) 98 %
10.12.2014 21:20 2,6 C 2,5 C 2,6 C 92 % 1020,1 hPa 0,0 l/m 3,0 km/h (1 Bft) SW 214 0 min 0,000 mm 0 W/m 1,4 C 2,6 C 8,0 km/h (2 Bft) 97 %
10.12.2014 21:30 2,7 C 2,6 C 2,7 C 92 % 1020,0 hPa 0,0 l/m 1,6 km/h (1 Bft) SW 225 0 min 0,000 mm 0 W/m 1,5 C 2,7 C 8,0 km/h (2 Bft) 100 %
10.12.2014 21:40 2,8 C 2,7 C 2,8 C 92 % 1019,7 hPa 0,0 l/m 3,2 km/h (1 Bft) S-SW 202 0 min 0,000 mm 0 W/m 1,6 C 2,8 C 9,7 km/h (2 Bft) 100 %
10.12.2014 21:50 2,8 C 2,8 C 2,8 C 92 % 1019,9 hPa 0,0 l/m 3,2 km/h (1 Bft) S-SW 202 0 min 0,000 mm 0 W/m 1,6 C 2,8 C 8,0 km/h (2 Bft) 100 %
10.12.2014 22:00 2,8 C 2,8 C 2,8 C 92 % 1019,8 hPa 0,0 l/m 1,6 km/h (1 Bft) S 180 0 min 0,000 mm 0 W/m 1,6 C 2,8 C 6,4 km/h (2 Bft) 89 %
10.12.2014 22:10 2,9 C 2,8 C 2,9 C 92 % 1019,7 hPa 0,0 l/m 1,6 km/h (1 Bft) S-SO 157 0 min 0,000 mm 0 W/m 1,7 C 2,9 C 9,7 km/h (2 Bft) 100 %
10.12.2014 22:20 2,9 C 2,9 C 2,9 C 92 % 1019,6 hPa 0,0 l/m 1,6 km/h (1 Bft) S-SO 157 0 min 0,000 mm 0 W/m 1,7 C 2,9 C 6,4 km/h (2 Bft) 100 %
10.12.2014 22:30 3,0 C 2,9 C 3,0 C 92 % 1019,6 hPa 0,0 l/m 3,2 km/h (1 Bft) S 180 0 min 0,000 mm 0 W/m 1,8 C 3,0 C 12,9 km/h (3 Bft) 100 %
10.12.2014 22:40 3,1 C 3,0 C 3,1 C 92 % 1019,6 hPa 0,0 l/m 3,2 km/h (1 Bft) S-SW 202 0 min 0,000 mm 0 W/m 1,9 C 3,1 C 11,3 km/h (2 Bft) 100 %
10.12.2014 22:50 3,1 C 3,0 C 3,1 C 92 % 1019,5 hPa 0,0 l/m 3,2 km/h (1 Bft) S-SO 157 0 min 0,000 mm 0 W/m 1,9 C 3,1 C 9,7 km/h (2 Bft) 100 %
10.12.2014 23:00 3,1 C 3,1 C 3,1 C 92 % 1019,3 hPa 0,0 l/m 3,2 km/h (1 Bft) S 180 0 min 0,000 mm 0 W/m 1,9 C 3,1 C 9,7 km/h (2 Bft) 100 %
10.12.2014 23:10 3,1 C 3,1 C 3,1 C 92 % 1019,2 hPa 0,0 l/m 3,2 km/h (1 Bft) S-SO 157 0 min 0,000 mm 0 W/m 1,9 C 3,1 C 9,7 km/h (2 Bft) 100 %
10.12.2014 23:20 3,1 C 3,1 C 3,1 C 92 % 1019,3 hPa 0,0 l/m 4,8 km/h (1 Bft) S 180 0 min 0,000 mm 0 W/m 1,9 C 3,1 C 14,5 km/h (3 Bft) 100 %
10.12.2014 23:30 3,1 C 3,1 C 3,1 C 92 % 1019,3 hPa 0,0 l/m 6,4 km/h (2 Bft) SW 225 0 min 0,000 mm 0 W/m 1,9 C 3,1 C 12,9 km/h (3 Bft) 100 %
10.12.2014 23:40 3,2 C 3,1 C 3,2 C 92 % 1019,2 hPa 0,0 l/m 6,4 km/h (2 Bft) SW 225 0 min 0,000 mm 0 W/m 2,0 C 3,2 C 17,7 km/h (3 Bft) 92 %
10.12.2014 23:50 3,3 C 3,2 C 3,3 C 92 % 1019,0 hPa 0,0 l/m 8,0 km/h (2 Bft) SW 225 0 min 0,000 mm 0 W/m 2,1 C 1,8 C 19,3 km/h (3 Bft) 100 %
_ Min-Zeit 03:00 03:00 02:50 01:50 23:50 - 00:10 - - - - - 02:40 04:20 00:10 18:40
Minimum _ -1,3 C -1,3 C -1,2 C 91 % 1019,0 hPa - 0,0 km/h (0 Bft) - - - - - -2,3 C -3,9 C 0,0 km/h (0 Bft) 89 %
_ Max-Zeit 23:50 23:50 23:50 12:40 00:00 11:50 13:20 - - 00:00 11:00 12:00 23:50 23:40 04:10 00:20
Maximum _ 3,3 C 3,2 C 3,3 C 93 % 1029,9 hPa 0,2 l/m 10,2 km/h
S-SW (2 Bft)
- - 0 min 0,026 mm 84 W/m 2,1 C 3,2 C 22,5 km/h
SW (4 Bft)
100 %
Durchschnitt _ 0,8 C 0,8 C 0,8 C 92 % 1023,5 hPa #1,0 l/m 3,9 km/h (1 Bft) S - #0 min. #0,127 mm 39 W/m -0,4 C 0,5 C 10,3 km/h (2 Bft) 99 %
PRIVATE WETTERSTATION BILLIGHEIM-ALLFELD - www.neckar-odenwald-wetter.de - Holger Sonntag